Terminal Aerodrome Forecast
Issued by NWS

Home | Current Version | Previous Version | Text Only | Print | Product List | Glossary On
Versions: 1 2 3 4 5 6 7 8 9 10 11 12 13 14 15 16 17 18 19 20 21 22 23 24 25 26 27 28 29 30 31 32 33 34 35 36 37 38 39
000
FTUS45 KBOI 190204 AAA
TAFMYL
TAF AMD
KMYL 190204Z 1902/1924 16007KT P6SM VCSH SCT020 OVC035
      TEMPO 1902/1905 4SM -SN BR BKN015
     FM190800 14008KT 3SM -SN BR SCT005 OVC015
     FM191200 15005KT 1/2SM SN FZFG OVC008=

USA.gov is the U.S. government's official web portal to all federal, state and local government web resources and services.